Terminal Aerodrome Forecast
Issued by NWS

Home | Current Version | Previous Version | Text Only | Print | Product List | Glossary On
Versions: 1 2 3 4 5 6 7 8 9 10 11 12 13 14 15 16 17 18 19 20 21
000
FTUS43 KMPX 271120
TAFRNH
TAF
KRNH 271120Z 2712/2812 10003KT P6SM VCSH OVC090
     FM271700 12005KT P6SM BKN035 OVC070
     FM272200 14005KT P6SM SCT040 BKN150
     FM280800 00000KT 2SM BR SCT004 BKN100=

USA.gov is the U.S. government's official web portal to all federal, state and local government web resources and services.